Yatesboro, Pennsylvania
Current Conditions -  °F | °C
As of 3:15 AM on Saturday 25 Oct 2014 (Local Time) from KIDI Reporting Station
Overcast Overcast  
Wind Chill: 46°   Ceiling: 4800
Heat Index: 46°   Visibility: 10mi
Dew Point: 39°   Wind: 0mph
Humidity: 76%   Direction: NA
Pressure: 30.01"   Gusts: NA
Location:  40.8°N, 79.33°W
Report Text: KIDI 250715Z AUTO 00000KT 10SM OVC048 08/04 A3001 RMK A01
Loading
Personal Weather Stations






























Interactive Weather Map
Tropical Storm Tracking
New forecast layout! Learn more

10-Day Weather Forecast

Advertisements
Track Severe Weather on mobile